Time;durP1;ratioP1;P1;durP2;ratioP2;P2;SDS_P1;SDS_P2;PMS_P1;PMS_P2;Temp;Humidity;BMP_temperature;BMP_pressure;BME280_temperature;BME280_humidity;BME280_pressure;Samples;Min_cycle;Max_cycle;Signal;HPM_P1;HPM_P2
2024/02/24 00:00:53;;;;;;;5.65;3.55;;;;;;;3.80;100.00;99367.72;6001143;19;2004662;-74
2024/02/24 00:03:05;;;;;;;7.70;3.47;;;;;;;3.80;100.00;99373.75;6013994;19;20006;-73
2024/02/24 00:05:14;;;;;;;7.50;3.33;;;;;;;3.77;100.00;99373.88;6081922;19;20061;-72
2024/02/24 00:07:29;;;;;;;5.70;3.85;;;;;;;3.77;100.00;99379.06;6085316;19;20003;-73
2024/02/24 00:09:40;;;;;;;5.50;3.15;;;;;;;3.70;100.00;99383.63;6084623;19;20372;-73
2024/02/24 00:11:55;;;;;;;7.00;3.80;;;;;;;3.70;100.00;99380.19;6085677;19;20087;-76
2024/02/24 00:14:05;;;;;;;5.47;3.22;;;;;;;3.66;100.00;99376.84;6081187;19;20023;-73
2024/02/24 00:16:25;;;;;;;5.88;3.38;;;;;;;3.67;100.00;99375.94;6082320;19;20478;-75
2024/02/24 00:18:33;;;;;;;7.57;4.03;;;;;;;3.70;100.00;99380.19;6084966;19;20018;-73
2024/02/24 00:20:55;;;;;;;5.93;3.35;;;;;;;3.66;100.00;99373.38;6086311;19;20501;-73
2024/02/24 00:23:26;;;;;;;;;;;;;;;;;;;;;
2024/02/24 00:25:39;;;;;;;7.45;3.70;;;;;;;3.70;100.00;99369.78;6081750;19;20481;-75
2024/02/24 00:27:53;;;;;;;8.02;4.65;;;;;;;3.73;100.00;99380.06;6082106;19;20013;-73
2024/02/24 00:30:15;;;;;;;4.82;2.92;;;;;;;3.79;100.00;99381.59;6082187;19;20006;-74
2024/02/24 00:32:30;;;;;;;11.55;3.47;;;;;;;3.84;100.00;99379.69;6076745;19;20015;-73
2024/02/24 00:34:39;;;;;;;10.38;4.68;;;;;;;3.82;100.00;99386.66;6082029;19;20506;-73
2024/02/24 00:36:53;;;;;;;7.55;3.83;;;;;;;3.86;100.00;99389.13;6082968;19;20022;-74
2024/02/24 00:39:01;;;;;;;4.65;2.92;;;;;;;3.91;100.00;99389.78;6083399;19;20552;-73
2024/02/24 00:41:10;;;;;;;8.57;4.05;;;;;;;3.87;100.00;99377.84;6081678;19;20009;-73
2024/02/24 00:43:21;;;;;;;7.30;4.28;;;;;;;3.84;100.00;99383.13;6080619;19;20518;-74
2024/02/24 00:45:28;;;;;;;6.28;3.35;;;;;;;3.94;100.00;99391.44;6081723;19;20019;-74
2024/02/24 00:47:39;;;;;;;7.40;3.83;;;;;;;3.99;100.00;99386.91;6083602;19;20031;-74
2024/02/24 00:49:48;;;;;;;5.30;3.08;;;;;;;4.00;100.00;99390.34;6077916;19;20283;-74
2024/02/24 00:52:03;;;;;;;7.10;4.50;;;;;;;3.94;100.00;99387.06;6081424;19;20006;-73
2024/02/24 00:54:14;;;;;;;6.65;3.40;;;;;;;3.92;100.00;99386.31;6082795;19;20029;-75
2024/02/24 00:56:28;;;;;;;6.88;3.45;;;;;;;3.95;100.00;99388.78;6083594;19;20569;-73
2024/02/24 00:58:40;;;;;;;6.75;3.78;;;;;;;3.93;100.00;99387.16;6081053;19;20086;-75
2024/02/24 01:00:47;;;;;;;6.38;3.70;;;;;;;3.91;100.00;99387.19;6081627;19;20083;-73
2024/02/24 01:02:58;;;;;;;10.02;4.00;;;;;;;3.89;100.00;99389.00;6083328;19;20017;-73
2024/02/24 01:05:03;;;;;;;8.88;3.97;;;;;;;3.89;100.00;99389.00;6080572;19;20016;-73
2024/02/24 01:07:19;;;;;;;6.38;3.40;;;;;;;3.88;100.00;99383.88;6081784;19;20007;-73
2024/02/24 01:09:32;;;;;;;5.97;3.25;;;;;;;3.88;100.00;99381.28;5999422;19;2004611;-73
2024/02/24 01:11:44;;;;;;;8.18;3.92;;;;;;;3.84;100.00;99388.31;6078798;19;20492;-73
2024/02/24 01:13:50;;;;;;;9.02;4.72;;;;;;;3.81;100.00;99390.19;6084938;19;20013;-73
2024/02/24 01:15:59;;;;;;;8.68;4.13;;;;;;;3.85;100.00;99387.44;6081144;19;20028;-74
2024/02/24 01:18:10;;;;;;;7.30;3.83;;;;;;;3.84;100.00;99383.13;6083721;19;20029;-74
2024/02/24 01:20:19;;;;;;;5.80;3.75;;;;;;;3.81;100.00;99393.63;6081193;19;20447;-73
2024/02/24 01:22:27;;;;;;;5.38;3.65;;;;;;;3.79;100.00;99390.25;6087197;19;20002;-74
2024/02/24 01:24:36;;;;;;;8.30;4.30;;;;;;;3.78;100.00;99391.16;6087467;19;20640;-73
2024/02/24 01:26:55;;;;;;;7.55;3.95;;;;;;;3.79;100.00;99392.84;6086437;19;20027;-73
2024/02/24 01:29:03;;;;;;;8.15;3.90;;;;;;;3.79;100.00;99392.84;6084946;19;20611;-75
2024/02/24 01:31:14;;;;;;;5.90;3.20;;;;;;;3.89;100.00;99395.94;6086294;19;20022;-75
2024/02/24 01:33:31;;;;;;;7.22;4.18;;;;;;;3.83;100.00;99394.44;6088482;19;20054;-75
2024/02/24 01:38:07;;;;;;;9.60;3.88;;;;;;;3.86;100.00;99404.69;5985494;19;2004816;-73
2024/02/24 01:40:18;;;;;;;8.77;4.20;;;;;;;3.87;100.00;99406.41;6087281;19;20753;-72
2024/02/24 01:42:39;;;;;;;6.63;3.45;;;;;;;3.84;100.00;99406.50;6090098;19;20578;-72
2024/02/24 01:44:47;;;;;;;6.30;4.05;;;;;;;3.88;100.00;99415.06;6086559;19;20605;-73
2024/02/24 01:46:57;;;;;;;5.32;3.70;;;;;;;3.89;100.00;99414.13;6088552;19;20010;-73
2024/02/24 01:49:10;;;;;;;7.40;3.50;;;;;;;3.91;100.00;99413.19;6089176;19;20476;-73
2024/02/24 01:51:18;;;;;;;5.85;4.13;;;;;;;3.93;100.00;99411.38;6086132;19;20582;-73
2024/02/24 01:53:38;;;;;;;7.35;4.38;;;;;;;3.91;100.00;99409.75;6083848;19;20024;-73
2024/02/24 01:55:46;;;;;;;7.53;3.90;;;;;;;3.94;100.00;99417.41;6085304;19;20038;-73
2024/02/24 01:57:56;;;;;;;7.40;4.50;;;;;;;3.90;100.00;99408.91;6088340;19;20006;-74
2024/02/24 02:00:01;;;;;;;7.35;3.55;;;;;;;3.97;100.00;99418.16;6083258;19;20517;-75
2024/02/24 02:02:08;;;;;;;6.88;3.75;;;;;;;3.91;100.00;99414.94;6087163;19;20081;-75
2024/02/24 02:04:16;;;;;;;4.90;3.75;;;;;;;3.93;100.00;99415.75;6086614;19;20042;-74
2024/02/24 02:06:28;;;;;;;8.15;3.90;;;;;;;3.88;100.00;99410.69;6088183;19;20032;-73
2024/02/24 02:08:35;;;;;;;6.22;3.42;;;;;;;3.92;100.00;99408.81;6087281;19;20006;-75
2024/02/24 02:10:45;;;;;;;6.80;3.88;;;;;;;3.92;100.00;99403.63;6086067;19;20042;-75
2024/02/24 02:12:50;;;;;;;5.95;4.38;;;;;;;4.01;100.00;99415.47;6085072;19;20015;-75
2024/02/24 02:14:57;;;;;;;6.15;3.42;;;;;;;3.97;100.00;99418.16;6085522;19;20073;-75
2024/02/24 02:17:02;;;;;;;6.80;3.58;;;;;;;4.01;100.00;99410.25;6085398;19;20014;-75
2024/02/24 02:19:07;;;;;;;5.97;3.53;;;;;;;3.97;100.00;99412.94;6089153;19;20033;-74
2024/02/24 02:21:17;;;;;;;7.97;4.35;;;;;;;3.97;100.00;99412.09;6085510;19;20018;-74
2024/02/24 02:23:25;;;;;;;8.30;3.83;;;;;;;3.95;100.00;99414.78;6085475;19;20076;-74
2024/02/24 02:25:38;;;;;;;6.78;3.75;;;;;;;3.97;100.00;99417.31;6085156;19;20037;-73
2024/02/24 02:27:50;;;;;;;5.28;3.17;;;;;;;3.94;100.00;99418.25;6071449;19;20474;-74
2024/02/24 02:30:03;;;;;;;7.45;4.20;;;;;;;3.92;100.00;99420.09;6084765;19;19999;-74
2024/02/24 02:32:08;;;;;;;7.75;3.53;;;;;;;3.95;100.00;99424.34;6088388;19;20014;-73
2024/02/24 02:34:23;;;;;;;5.43;3.13;;;;;;;3.99;100.00;99423.31;6004874;19;2004902;-73
2024/02/24 02:36:40;;;;;;;7.63;4.07;;;;;;;3.99;100.00;99419.88;5983554;19;2004825;-74
2024/02/24 02:38:54;;;;;;;8.90;3.85;;;;;;;3.89;100.00;99422.78;6083038;19;20078;-73
2024/02/24 02:41:02;;;;;;;12.20;3.90;;;;;;;3.87;100.00;99423.72;6080673;19;20014;-73
2024/02/24 02:43:13;;;;;;;8.25;4.28;;;;;;;3.84;100.00;99432.50;6084739;19;20576;-74
2024/02/24 02:47:44;;;;;;;10.68;4.85;;;;;;;3.77;100.00;99423.22;6083147;19;20093;-74
2024/02/24 02:49:54;;;;;;;9.13;4.22;;;;;;;3.72;100.00;99428.59;6082061;19;20006;-73
2024/02/24 02:52:12;;;;;;;10.45;3.90;;;;;;;3.79;100.00;99421.44;6084229;19;20011;-74
2024/02/24 02:54:21;;;;;;;9.32;4.78;;;;;;;3.70;100.00;99419.16;6083629;19;20719;-73
2024/02/24 02:56:35;;;;;;;10.18;4.97;;;;;;;3.72;100.00;99423.38;6081516;19;20087;-73
2024/02/24 02:58:43;;;;;;;9.00;4.72;;;;;;;3.72;100.00;99422.56;6082327;19;20342;-73
2024/02/24 03:00:51;;;;;;;6.50;4.07;;;;;;;3.67;100.00;99421.88;6084179;19;20017;-74
2024/02/24 03:02:58;;;;;;;11.40;6.00;;;;;;;3.67;100.00;99417.50;6085481;19;20011;-73
2024/02/24 03:05:10;;;;;;;9.70;3.65;;;;;;;3.69;100.00;99425.25;6084402;19;20007;-73
2024/02/24 03:07:18;;;;;;;8.23;4.15;;;;;;;3.72;100.00;99423.38;6084030;19;20731;-74
2024/02/24 03:09:32;;;;;;;11.40;4.75;;;;;;;3.65;100.00;99421.91;6081682;19;20007;-74
2024/02/24 03:11:52;;;;;;;10.77;4.97;;;;;;;3.68;100.00;99426.97;5979153;19;2004760;-73
2024/02/24 03:14:04;;;;;;;8.07;4.43;;;;;;;3.69;100.00;99425.25;6080931;19;20011;-73
2024/02/24 03:16:33;;;;;;;18.27;5.45;;;;;;;3.65;100.00;99431.44;6082901;19;20014;-73
2024/02/24 03:18:59;;;;;;;9.38;5.03;;;;;;;3.56;100.00;99426.59;6080753;19;20029;-73
2024/02/24 03:21:09;;;;;;;11.70;5.00;;;;;;;3.54;100.00;99429.22;6084930;19;20015;-73
2024/02/24 03:23:16;;;;;;;9.80;4.75;;;;;;;3.57;100.00;99430.88;6084345;19;20012;-73
2024/02/24 03:25:29;;;;;;;13.77;5.43;;;;;;;3.52;100.00;99426.66;6082805;19;20038;-73
2024/02/24 03:27:35;;;;;;;12.40;4.30;;;;;;;3.51;100.00;99424.97;6081258;19;20129;-74
2024/02/24 03:29:45;;;;;;;14.95;6.15;;;;;;;3.58;100.00;99432.56;6084629;19;20011;-75
2024/02/24 03:31:50;;;;;;;11.75;5.57;;;;;;;3.51;100.00;99431.94;6086963;19;20054;-74
2024/02/24 03:33:58;;;;;;;9.77;4.97;;;;;;;3.56;100.00;99436.97;6089061;19;20020;-74
2024/02/24 03:36:15;;;;;;;12.02;5.90;;;;;;;3.57;100.00;99444.69;5980928;19;2005098;-73
2024/02/24 03:38:20;;;;;;;16.00;5.28;;;;;;;3.58;100.00;99435.16;6084520;19;20482;-74
2024/02/24 03:40:30;;;;;;;12.45;6.00;;;;;;;3.55;100.00;99441.28;6085876;19;20014;-74
2024/02/24 03:42:38;;;;;;;12.82;5.43;;;;;;;3.54;100.00;99433.56;6084679;19;20018;-74
2024/02/24 03:44:40;;;;;;;10.73;4.85;;;;;;;3.62;100.00;99436.75;6082910;19;20026;-75
2024/02/24 03:46:49;;;;;;;9.60;5.30;;;;;;;3.60;100.00;99429.00;6083363;19;20018;-73
2024/02/24 03:48:57;;;;;;;16.05;5.75;;;;;;;3.64;100.00;99433.22;6086906;19;20010;-74
2024/02/24 03:51:03;;;;;;;12.60;4.82;;;;;;;3.57;100.00;99428.28;6086496;19;20503;-74
2024/02/24 03:53:21;;;;;;;10.35;5.65;;;;;;;3.58;100.00;99429.97;6083219;19;20367;-73
2024/02/24 03:55:38;;;;;;;9.15;5.70;;;;;;;3.56;100.00;99429.19;6085400;19;20018;-74
2024/02/24 03:57:49;;;;;;;8.35;4.78;;;;;;;3.56;100.00;99435.22;6085161;19;20010;-75
2024/02/24 04:02:21;;;;;;;14.57;7.97;;;;;;;3.42;100.00;99445.22;6082440;19;20340;-74
2024/02/24 04:04:31;;;;;;;13.13;8.30;;;;;;;3.45;100.00;99438.19;6002503;19;2004915;-74
2024/02/24 04:06:50;;;;;;;11.50;5.38;;;;;;;3.44;100.00;99446.84;6082823;19;20031;-74
2024/02/24 04:09:03;;;;;;;11.57;5.68;;;;;;;3.36;100.00;99443.69;6082740;19;20011;-74
2024/02/24 04:11:20;;;;;;;13.80;6.32;;;;;;;3.36;100.00;99438.47;6085059;19;20102;-75
2024/02/24 04:13:27;;;;;;;9.23;5.57;;;;;;;3.38;100.00;99438.44;6082721;19;20007;-75
2024/02/24 04:15:31;;;;;;;12.95;7.40;;;;;;;3.31;100.00;99442.97;6086143;19;20358;-75
2024/02/24 04:17:39;;;;;;;12.02;5.80;;;;;;;3.29;100.00;99444.78;6086025;19;20003;-74
2024/02/24 04:19:49;;;;;;;10.35;5.20;;;;;;;3.27;100.00;99450.03;6085386;19;20007;-74
2024/02/24 04:21:54;;;;;;;12.70;6.25;;;;;;;3.30;100.00;99449.94;6083893;19;20010;-73
2024/02/24 04:24:10;;;;;;;12.32;6.00;;;;;;;3.21;100.00;99449.38;6085411;19;20006;-74
2024/02/24 04:26:22;;;;;;;10.23;5.72;;;;;;;3.26;100.00;99460.44;6083748;19;20003;-74
2024/02/24 04:29:00;;;;;;;11.75;6.05;;;;;;;3.27;100.00;99468.19;6083449;19;20018;-74
2024/02/24 04:31:08;;;;;;;11.38;6.82;;;;;;;3.22;100.00;99470.09;6081517;19;20022;-74
2024/02/24 04:33:16;;;;;;;13.18;5.72;;;;;;;3.17;100.00;99469.41;6083657;19;20106;-75
2024/02/24 04:35:33;;;;;;;13.82;6.95;;;;;;;3.14;100.00;99477.28;6084378;19;20510;-74
2024/02/24 04:37:40;;;;;;;12.20;6.43;;;;;;;3.16;100.00;99479.81;6082780;19;20102;-73
2024/02/24 04:39:55;;;;;;;14.73;7.25;;;;;;;3.25;100.00;99490.75;6084499;19;20018;-74
2024/02/24 04:42:03;;;;;;;12.15;6.25;;;;;;;3.29;100.00;99481.13;6083467;19;20007;-75
2024/02/24 04:44:09;;;;;;;11.48;6.05;;;;;;;3.26;100.00;99487.25;6084794;19;20041;-73
2024/02/24 04:46:14;;;;;;;12.63;6.05;;;;;;;3.25;100.00;99485.56;6084533;19;20824;-74
2024/02/24 04:48:22;;;;;;;14.77;7.30;;;;;;;3.23;100.00;99481.31;6082497;19;20049;-73
2024/02/24 04:50:28;;;;;;;15.50;6.45;;;;;;;3.23;100.00;99478.72;6081272;19;20010;-73
2024/02/24 04:52:33;;;;;;;13.82;6.47;;;;;;;3.19;100.00;99485.78;6079618;19;20283;-74
2024/02/24 04:54:38;;;;;;;11.20;6.45;;;;;;;3.23;100.00;99481.31;6080833;19;21087;-73
2024/02/24 04:56:43;;;;;;;14.95;6.05;;;;;;;3.20;100.00;99487.47;6087079;19;20012;-73
2024/02/24 04:58:51;;;;;;;14.57;7.55;;;;;;;3.24;100.00;99488.22;6089185;19;20014;-74
2024/02/24 05:00:56;;;;;;;15.57;6.22;;;;;;;3.26;100.00;99487.25;6086441;19;20033;-74
2024/02/24 05:03:01;;;;;;;13.23;7.30;;;;;;;3.20;100.00;99491.81;6086210;19;20010;-74
2024/02/24 05:05:09;;;;;;;9.93;5.35;;;;;;;3.27;100.00;99490.72;6091579;19;20089;-74
2024/02/24 05:07:13;;;;;;;10.43;6.30;;;;;;;3.25;100.00;99482.13;6089923;19;20496;-74
2024/02/24 05:09:18;;;;;;;12.75;6.72;;;;;;;3.26;100.00;99489.00;6093034;19;20017;-74
2024/02/24 05:11:24;;;;;;;13.55;7.43;;;;;;;3.22;100.00;99490.88;6088892;19;20014;-74
2024/02/24 05:13:30;;;;;;;15.43;8.15;;;;;;;3.25;100.00;99487.31;6089834;19;20019;-74
2024/02/24 05:15:37;;;;;;;15.88;7.57;;;;;;;3.21;100.00;99484.00;6092466;19;20018;-74
2024/02/24 05:17:42;;;;;;;14.88;6.13;;;;;;;3.14;100.00;99487.66;6091900;19;20010;-73
2024/02/24 05:19:47;;;;;;;13.73;7.78;;;;;;;3.19;100.00;99488.38;6090065;19;20101;-75
2024/02/24 05:21:53;;;;;;;13.73;7.00;;;;;;;3.17;100.00;99486.72;6089220;19;20010;-73
2024/02/24 05:24:00;;;;;;;12.23;6.88;;;;;;;3.14;100.00;99487.66;6088840;19;20014;-75
2024/02/24 05:26:09;;;;;;;14.25;6.80;;;;;;;3.19;100.00;99496.16;6089173;19;20018;-73
2024/02/24 05:28:11;;;;;;;11.15;6.25;;;;;;;3.12;100.00;99499.84;6088634;19;20401;-75
2024/02/24 05:30:16;;;;;;;14.45;7.95;;;;;;;3.10;100.00;99504.22;6089503;19;20106;-74
2024/02/24 05:32:24;;;;;;;13.10;7.03;;;;;;;3.05;100.00;99506.09;6090460;19;20003;-74
2024/02/24 05:34:29;;;;;;;19.77;7.60;;;;;;;3.10;100.00;99516.34;6087729;19;20011;-73
2024/02/24 05:36:35;;;;;;;12.77;7.75;;;;;;;3.01;100.00;99518.34;6088066;19;20415;-74
2024/02/24 05:38:40;;;;;;;15.52;7.97;;;;;;;3.04;100.00;99523.44;6088531;19;20474;-74
2024/02/24 05:40:45;;;;;;;16.70;7.90;;;;;;;3.12;100.00;99525.78;6086254;19;20006;-73
2024/02/24 05:42:50;;;;;;;16.55;7.53;;;;;;;3.13;100.00;99526.63;6085788;19;20054;-73
2024/02/24 05:44:56;;;;;;;14.98;7.55;;;;;;;3.10;100.00;99537.13;6088847;19;20094;-74
2024/02/24 05:47:03;;;;;;;12.00;7.22;;;;;;;3.14;100.00;99533.53;6087343;19;20913;-73
2024/02/24 05:49:14;;;;;;;15.70;6.75;;;;;;;3.10;100.00;99539.72;6086710;19;20010;-74
2024/02/24 05:51:24;;;;;;;13.68;6.97;;;;;;;3.16;100.00;99536.91;6089175;19;20030;-74
2024/02/24 05:53:31;;;;;;;14.35;7.50;;;;;;;3.16;100.00;99540.38;6084053;19;20013;-74
2024/02/24 05:55:36;;;;;;;13.70;7.97;;;;;;;3.21;100.00;99540.22;6088553;19;20022;-75
2024/02/24 05:57:42;;;;;;;20.45;7.78;;;;;;;3.16;100.00;99544.72;6086581;19;21024;-74
2024/02/24 05:59:47;;;;;;;14.77;7.35;;;;;;;3.27;100.00;99547.84;6085678;19;20676;-73
2024/02/24 06:01:53;;;;;;;17.98;8.82;;;;;;;3.32;100.00;99548.56;6084515;19;20023;-75
2024/02/24 06:03:58;;;;;;;12.80;7.63;;;;;;;3.38;100.00;99547.50;6090009;19;20955;-74
2024/02/24 06:06:07;;;;;;;20.38;7.93;;;;;;;3.47;100.00;99549.78;6081335;19;20052;-74
2024/02/24 06:08:12;;;;;;;17.23;10.23;;;;;;;3.45;100.00;99544.66;6084591;19;20038;-74
2024/02/24 06:10:18;;;;;;;21.83;9.23;;;;;;;3.48;100.00;99549.75;6085635;19;20340;-74
2024/02/24 06:12:23;;;;;;;21.40;9.98;;;;;;;3.45;100.00;99544.66;6087524;19;20037;-74
2024/02/24 06:14:31;;;;;;;15.35;7.80;;;;;;;3.39;100.00;99549.19;6088906;19;20020;-74
2024/02/24 06:16:37;;;;;;;15.45;8.02;;;;;;;3.45;100.00;99556.78;6086876;19;20027;-74
2024/02/24 06:18:42;;;;;;;16.13;9.70;;;;;;;3.43;100.00;99563.78;6088436;19;20034;-74
2024/02/24 06:20:47;;;;;;;19.58;8.60;;;;;;;3.41;100.00;99563.81;6086866;19;20002;-74
2024/02/24 06:22:56;;;;;;;20.23;9.43;;;;;;;3.40;100.00;99571.69;6081872;19;20006;-75
2024/02/24 06:25:01;;;;;;;15.10;8.07;;;;;;;3.41;100.00;99562.97;6088638;19;20018;-73
2024/02/24 06:27:07;;;;;;;18.27;8.25;;;;;;;3.46;100.00;99567.13;6089899;19;20531;-73
2024/02/24 06:29:15;;;;;;;18.90;8.25;;;;;;;3.47;100.00;99574.00;6084872;19;20058;-74
2024/02/24 06:31:20;;;;;;;15.88;8.10;;;;;;;3.46;100.00;99567.13;6085755;19;20058;-73
2024/02/24 06:33:26;;;;;;;13.43;7.57;;;;;;;3.45;100.00;99581.03;6087802;19;20034;-74
2024/02/24 06:35:31;;;;;;;13.88;7.53;;;;;;;3.46;100.00;99572.31;6086252;19;20042;-73
2024/02/24 06:37:36;;;;;;;17.30;9.55;;;;;;;3.48;100.00;99577.47;6087468;19;20006;-73
2024/02/24 06:39:44;;;;;;;15.30;7.30;;;;;;;3.51;100.00;99578.22;6087984;19;20013;-73
2024/02/24 06:41:49;;;;;;;15.60;7.53;;;;;;;3.50;100.00;99578.25;6088408;19;20449;-73
2024/02/24 06:43:57;;;;;;;13.25;7.47;;;;;;;3.48;100.00;99586.13;6086648;19;20010;-74
2024/02/24 06:46:06;;;;;;;18.42;8.38;;;;;;;3.52;100.00;99582.50;6084662;19;20735;-74
2024/02/24 06:48:12;;;;;;;17.73;8.07;;;;;;;3.49;100.00;99586.94;6085858;19;20478;-74
2024/02/24 06:50:27;;;;;;;17.55;7.40;;;;;;;3.44;100.00;99583.66;6081736;19;20359;-74
2024/02/24 06:52:33;;;;;;;14.85;7.32;;;;;;;3.41;100.00;99583.75;6082161;19;20030;-74
2024/02/24 06:54:44;;;;;;;16.48;7.47;;;;;;;3.47;100.00;99593.94;6087286;19;19998;-74
2024/02/24 06:56:58;;;;;;;15.25;7.63;;;;;;;3.51;100.00;99599.00;6072705;19;20007;-73
2024/02/24 06:59:07;;;;;;;15.60;7.45;;;;;;;3.57;100.00;99610.09;6087697;19;20014;-73
2024/02/24 07:01:13;;;;;;;17.00;8.27;;;;;;;3.59;100.00;99609.16;6083709;19;20010;-75
2024/02/24 07:03:21;;;;;;;17.80;8.07;;;;;;;3.61;100.00;99603.91;6084310;19;20003;-73
2024/02/24 07:05:31;;;;;;;14.65;7.72;;;;;;;3.65;100.00;99608.09;6084610;19;20078;-73
2024/02/24 07:07:46;;;;;;;18.02;8.60;;;;;;;3.67;100.00;99611.50;5977261;19;2004664;-73
2024/02/24 07:10:04;;;;;;;12.77;7.63;;;;;;;3.76;100.00;99606.00;6081036;19;20102;-73
2024/02/24 07:12:12;;;;;;;15.27;7.85;;;;;;;3.75;100.00;99614.69;6082774;19;20115;-74
2024/02/24 07:14:20;;;;;;;17.63;8.27;;;;;;;3.73;100.00;99616.50;6082769;19;20358;-74
2024/02/24 07:16:27;;;;;;;14.90;8.43;;;;;;;3.79;100.00;99616.31;6085001;19;20007;-73
2024/02/24 07:18:32;;;;;;;15.32;7.05;;;;;;;3.80;100.00;99622.34;6083974;19;20482;-74
2024/02/24 07:20:37;;;;;;;13.80;8.32;;;;;;;3.79;100.00;99628.44;6081289;19;20006;-75
2024/02/24 07:22:43;;;;;;;13.55;7.95;;;;;;;3.86;100.00;99622.16;6084970;19;20434;-74
2024/02/24 07:24:48;;;;;;;22.90;8.50;;;;;;;3.88;100.00;99631.59;6086310;19;20265;-74
2024/02/24 07:27:00;;;;;;;17.65;8.65;;;;;;;3.87;100.00;99629.91;6083545;19;20010;-75
2024/02/24 07:29:07;;;;;;;13.52;7.18;;;;;;;3.89;100.00;99625.47;6083321;19;20511;-73
2024/02/24 07:31:13;;;;;;;14.23;7.93;;;;;;;3.91;100.00;99626.28;6082659;19;20645;-76
2024/02/24 07:33:19;;;;;;;12.98;6.93;;;;;;;3.98;100.00;99634.75;6083523;19;20041;-74
2024/02/24 07:35:29;;;;;;;16.42;7.75;;;;;;;4.03;100.00;99635.44;6085652;19;20287;-74
2024/02/24 07:37:37;;;;;;;16.52;7.88;;;;;;;4.07;100.00;99644.00;6085219;19;20457;-74
2024/02/24 07:39:39;;;;;;;14.68;7.80;;;;;;;4.10;100.00;99638.69;6084643;19;20378;-75
2024/02/24 07:41:45;;;;;;;14.45;6.75;;;;;;;4.09;100.00;99645.63;6087288;19;20074;-74
2024/02/24 07:43:56;;;;;;;12.73;6.22;;;;;;;4.04;100.00;99646.69;6084678;19;20483;-75
2024/02/24 07:46:03;;;;;;;14.82;6.88;;;;;;;4.08;100.00;99650.88;6082717;19;20086;-74
2024/02/24 07:48:12;;;;;;;16.52;7.88;;;;;;;4.13;100.00;99651.56;6084118;19;20003;-75
2024/02/24 07:50:21;;;;;;;12.65;6.03;;;;;;;4.19;100.00;99656.59;5995360;19;2004722;-75
2024/02/24 07:52:30;;;;;;;16.63;7.43;;;;;;;4.26;100.00;99654.63;6084021;19;20014;-74
2024/02/24 07:54:35;;;;;;;13.95;7.05;;;;;;;4.35;100.00;99654.31;6083256;19;20037;-75
2024/02/24 07:56:38;;;;;;;16.00;7.55;;;;;;;4.48;100.00;99657.34;6082657;19;20031;-75
2024/02/24 07:58:46;;;;;;;14.88;7.63;;;;;;;4.56;100.00;99660.53;6084233;19;20027;-74
2024/02/24 08:00:55;;;;;;;14.38;6.35;;;;;;;4.71;100.00;99665.19;6084748;19;20006;-75
2024/02/24 08:03:01;;;;;;;14.00;7.38;;;;;;;4.73;100.00;99671.19;6085775;19;20130;-75
2024/02/24 08:05:07;;;;;;;13.90;7.18;;;;;;;4.71;100.00;99670.38;6084669;19;20045;-74
2024/02/24 08:07:13;;;;;;;13.43;6.25;;;;;;;4.78;100.00;99678.84;6084258;19;20010;-75
2024/02/24 08:09:18;;;;;;;12.43;6.65;;;;;;;4.75;100.00;99677.19;6085271;19;20516;-74
2024/02/24 08:11:24;;;;;;;12.32;6.38;;;;;;;4.80;100.00;99679.66;6087023;19;20033;-76
2024/02/24 08:13:32;;;;;;;11.18;6.75;;;;;;;4.74;100.00;99685.03;6082953;19;20031;-77
2024/02/24 08:15:44;;;;;;;14.52;7.00;;;;;;;4.78;100.00;99690.09;6084001;19;20010;-75
2024/02/24 08:17:58;;;;;;;13.00;6.78;;;;;;;4.74;100.00;99685.03;6084520;19;20046;-74
2024/02/24 08:20:04;;;;;;;10.02;6.32;;;;;;;4.73;100.00;99693.75;6085565;19;20049;-76
2024/02/24 08:22:13;;;;;;;13.25;5.85;;;;;;;4.70;100.00;99689.50;6081823;19;20558;-76
2024/02/24 08:24:20;;;;;;;11.35;6.10;;;;;;;4.77;100.00;99687.56;6082297;19;20442;-76
2024/02/24 08:26:29;;;;;;;12.98;6.70;;;;;;;4.80;100.00;99690.06;6084020;19;20011;-75
2024/02/24 08:28:38;;;;;;;15.55;6.95;;;;;;;4.72;100.00;99692.09;5986347;19;2004492;-76
2024/02/24 08:30:45;;;;;;;14.55;6.32;;;;;;;4.75;100.00;99695.41;6083715;19;20037;-74
2024/02/24 08:32:59;;;;;;;11.75;6.03;;;;;;;4.79;100.00;99693.53;6088481;19;20007;-74
2024/02/24 08:35:06;;;;;;;13.85;6.28;;;;;;;4.69;100.00;99697.41;6087085;19;20018;-74
2024/02/24 08:37:11;;;;;;;12.77;6.38;;;;;;;4.72;100.00;99702.50;6085704;19;20002;-74
2024/02/24 08:39:16;;;;;;;15.98;7.20;;;;;;;4.78;100.00;99697.06;6088903;19;20013;-74
2024/02/24 08:41:22;;;;;;;13.77;7.13;;;;;;;4.80;100.00;99696.09;6089489;19;20022;-74
2024/02/24 08:43:30;;;;;;;11.77;7.15;;;;;;;4.82;100.00;99699.50;6089843;19;20660;-75
2024/02/24 08:45:41;;;;;;;16.23;7.05;;;;;;;4.73;100.00;99701.56;6089493;19;20006;-74
2024/02/24 08:47:46;;;;;;;12.95;6.78;;;;;;;4.77;100.00;99696.22;6089273;19;20506;-74
2024/02/24 08:49:55;;;;;;;15.50;6.53;;;;;;;4.72;100.00;99699.88;6090998;19;20053;-74
2024/02/24 08:52:07;;;;;;;13.18;7.07;;;;;;;4.76;100.00;99709.28;6089275;19;20006;-74
2024/02/24 08:54:20;;;;;;;12.85;6.78;;;;;;;4.74;100.00;99709.34;6089842;19;20010;-74
2024/02/24 08:56:27;;;;;;;10.82;6.30;;;;;;;4.67;100.00;99709.59;6088671;19;20532;-74
2024/02/24 08:58:32;;;;;;;12.85;6.22;;;;;;;4.64;100.00;99712.31;6088996;19;20003;-74
2024/02/24 09:00:41;;;;;;;10.38;5.88;;;;;;;4.68;100.00;99713.88;6088824;19;20090;-74
2024/02/24 09:02:52;;;;;;;9.82;5.15;;;;;;;4.72;100.00;99718.09;6084802;19;20015;-74
2024/02/24 09:05:04;;;;;;;10.65;6.57;;;;;;;4.72;100.00;99718.09;6087927;19;20002;-74
2024/02/24 09:07:12;;;;;;;10.27;4.50;;;;;;;4.69;100.00;99720.81;6087949;19;20019;-74
2024/02/24 09:09:16;;;;;;;9.68;4.82;;;;;;;4.67;100.00;99725.22;6087501;19;20790;-74
2024/02/24 09:11:25;;;;;;;13.15;6.30;;;;;;;4.63;100.00;99724.44;6088143;19;20117;-73
2024/02/24 09:13:33;;;;;;;11.68;5.53;;;;;;;4.65;100.00;99725.25;6087855;19;20478;-74
2024/02/24 09:15:38;;;;;;;13.85;4.97;;;;;;;4.65;100.00;99720.06;6086791;19;20010;-73
2024/02/24 09:17:44;;;;;;;10.88;6.00;;;;;;;4.74;100.00;99732.75;6088392;19;20374;-74
2024/02/24 09:19:49;;;;;;;10.68;5.72;;;;;;;4.73;100.00;99733.66;6089278;19;20135;-74
2024/02/24 09:22:04;;;;;;;7.10;4.97;;;;;;;4.69;100.00;99732.06;6086561;19;20007;-74
2024/02/24 09:24:10;;;;;;;9.32;5.22;;;;;;;4.69;100.00;99733.81;6088011;19;20003;-73
2024/02/24 09:26:36;;;;;;;9.43;4.95;;;;;;;4.68;100.00;99739.91;6087975;19;20011;-75
2024/02/24 09:28:42;;;;;;;8.00;4.93;;;;;;;4.65;100.00;99733.06;6089307;19;20325;-75
2024/02/24 09:30:47;;;;;;;10.23;4.95;;;;;;;4.68;100.00;99738.16;6085436;19;20026;-74
2024/02/24 09:32:53;;;;;;;7.78;4.13;;;;;;;4.62;100.00;99739.22;6088320;19;20046;-74
2024/02/24 09:34:59;;;;;;;12.02;4.55;;;;;;;4.69;100.00;99752.88;6089108;19;20422;-74
2024/02/24 09:37:10;;;;;;;8.45;4.35;;;;;;;4.69;100.00;99749.44;6088471;19;20024;-74
2024/02/24 09:39:18;;;;;;;8.82;3.83;;;;;;;4.71;100.00;99747.63;5988671;19;2004552;-73
2024/02/24 09:41:23;;;;;;;9.38;4.88;;;;;;;4.67;100.00;99757.28;6086484;19;20014;-74
2024/02/24 09:43:29;;;;;;;8.48;3.53;;;;;;;4.67;100.00;99752.09;6085840;19;20337;-74
2024/02/24 09:45:41;;;;;;;8.15;4.65;;;;;;;4.66;100.00;99755.59;6087318;19;20040;-74
2024/02/24 09:47:44;;;;;;;8.45;3.83;;;;;;;4.66;100.00;99755.59;6086672;19;20003;-75
2024/02/24 09:49:49;;;;;;;;;;;;;;;4.70;100.00;99753.72;6088136;19;20054;-74
2024/02/24 09:51:55;;;;;;;6.50;4.00;;;;;;;4.75;100.00;99770.03;6087478;19;19923;-77
2024/02/24 09:54:03;;;;;;;5.97;3.53;;;;;;;4.72;100.00;99760.59;6083538;19;20019;-75
2024/02/24 09:56:10;;;;;;;8.40;4.72;;;;;;;4.73;100.00;99764.88;6085682;19;20037;-76
2024/02/24 09:58:15;;;;;;;8.10;4.25;;;;;;;4.80;100.00;99770.75;6086258;19;20034;-74
2024/02/24 10:00:24;;;;;;;7.00;3.80;;;;;;;4.90;100.00;99768.66;6086072;19;20464;-76
2024/02/24 10:02:30;;;;;;;7.85;3.40;;;;;;;4.93;100.00;99774.63;6085993;19;20422;-76
2024/02/24 10:04:35;;;;;;;6.63;3.58;;;;;;;4.95;100.00;99774.56;6084530;19;20006;-75
2024/02/24 10:06:40;;;;;;;10.57;4.70;;;;;;;4.94;100.00;99780.66;6087827;19;20012;-76
2024/02/24 10:08:48;;;;;;;11.00;4.15;;;;;;;4.95;100.00;99782.34;6085813;19;20350;-76
2024/02/24 10:10:56;;;;;;;7.45;3.75;;;;;;;4.95;100.00;99784.97;6087405;19;20353;-75